Terminal Aerodrome Forecast
Issued by NWS Green Bay, WI

Home | Current Version | Previous Version | Graphics & Text | Print | Product List | Glossary On
Versions: 1 2 3 4 5 6 7 8 9 10 11 12 13 14 15 16 17 18 19 20 21 22 23 24 25 26 27 28 29 30 31 32 33 34
000
FTUS43 KGRB 141000 AAA
TAFGRB
TAF AMD
KGRB 141011Z 1410/1506 35016G26KT 1 1/2SM -SN OVC008
      TEMPO 1410/1414 1/2SM SN OVC005
     FM141500 35020G30KT 5SM -SN BKN018
     FM141800 34017G27KT P6SM BKN035
     FM150000 35012KT P6SM SCT050=

USA.gov is the U.S. government's official web portal to all federal, state and local government web resources and services.